Time;durP1;ratioP1;P1;durP2;ratioP2;P2;SDS_P1;SDS_P2;PMS_P1;PMS_P2;Temp;Humidity;BMP_temperature;BMP_pressure;BME280_temperature;BME280_humidity;BME280_pressure;Samples;Min_cycle;Max_cycle;Signal;HPM_P1;HPM_P2
2022/03/12 00:00:48;;;;;;;4.85;2.20;;;7.10;53.20;;;;;;4963536;28;20054;-68
2022/03/12 00:03:18;;;;;;;5.13;2.90;;;7.10;52.70;;;;;;4963626;28;20432;-68
2022/03/12 00:05:52;;;;;;;8.73;3.80;;;7.10;52.70;;;;;;4964866;28;20038;-68
2022/03/12 00:08:22;;;;;;;4.20;2.33;;;7.10;52.60;;;;;;4949165;28;20130;-68
2022/03/12 00:10:51;;;;;;;11.88;4.13;;;7.20;52.80;;;;;;4930551;29;20054;-68
2022/03/12 00:13:20;;;;;;;7.90;3.25;;;7.20;52.90;;;;;;4962636;28;20097;-68
2022/03/12 00:15:51;;;;;;;6.10;3.10;;;7.10;52.90;;;;;;4981892;28;20043;-68
2022/03/12 00:18:19;;;;;;;5.65;2.60;;;7.10;52.40;;;;;;4983012;28;20440;-68
2022/03/12 00:20:48;;;;;;;4.45;2.92;;;7.10;52.80;;;;;;4963707;28;20043;-68
2022/03/12 00:23:21;;;;;;;3.03;2.25;;;7.10;53.10;;;;;;4954889;28;20093;-68
2022/03/12 00:25:48;;;;;;;12.05;3.33;;;7.10;52.70;;;;;;4952204;28;20090;-68
2022/03/12 00:28:17;;;;;;;2.75;2.35;;;7.00;53.00;;;;;;4964297;28;20061;-68
2022/03/12 00:30:45;;;;;;;6.82;3.70;;;7.00;53.40;;;;;;4966575;28;20051;-68
2022/03/12 00:33:25;;;;;;;7.57;3.13;;;7.00;53.10;;;;;;4932119;28;20039;-69
2022/03/12 00:35:53;;;;;;;6.78;4.30;;;7.00;53.30;;;;;;4958810;28;20046;-68
2022/03/12 00:38:21;;;;;;;2.60;2.10;;;7.00;52.90;;;;;;4960673;28;20038;-68
2022/03/12 00:40:48;;;;;;;5.03;3.13;;;6.90;53.20;;;;;;4957675;28;20226;-68
2022/03/12 00:43:15;;;;;;;5.43;1.88;;;7.00;53.40;;;;;;4981193;28;20051;-68
2022/03/12 00:45:41;;;;;;;5.60;2.22;;;7.00;53.10;;;;;;4959246;28;20457;-68
2022/03/12 00:48:07;;;;;;;2.97;1.92;;;7.00;54.00;;;;;;4975645;28;20046;-68
2022/03/12 00:50:33;;;;;;;8.50;4.35;;;7.00;53.40;;;;;;4960225;28;20453;-68
2022/03/12 00:52:59;;;;;;;8.48;2.90;;;6.90;53.20;;;;;;4966228;28;20035;-68
2022/03/12 00:55:24;;;;;;;4.38;1.80;;;7.00;53.40;;;;;;4967476;28;20043;-68
2022/03/12 00:57:50;;;;;;;4.70;3.03;;;7.00;53.50;;;;;;4941692;28;20038;-68
2022/03/12 01:00:21;;;;;;;4.25;2.17;;;6.90;53.50;;;;;;4960487;28;20132;-68
2022/03/12 01:02:47;;;;;;;3.28;2.65;;;6.90;53.60;;;;;;4949508;28;20455;-68
2022/03/12 01:05:17;;;;;;;1.65;1.52;;;6.90;53.60;;;;;;4950743;28;20043;-68
2022/03/12 01:07:43;;;;;;;7.47;2.90;;;6.90;53.30;;;;;;4959472;28;20449;-68
2022/03/12 01:10:09;;;;;;;4.68;3.40;;;6.90;53.60;;;;;;4981769;28;20411;-68
2022/03/12 01:12:35;;;;;;;4.03;2.97;;;7.00;53.40;;;;;;4982246;28;20039;-68
2022/03/12 01:15:02;;;;;;;5.07;2.38;;;7.00;53.50;;;;;;4955113;28;20035;-68
2022/03/12 01:17:28;;;;;;;2.05;1.85;;;7.00;53.20;;;;;;4958912;28;20102;-68
2022/03/12 01:19:53;;;;;;;9.45;3.80;;;7.00;53.50;;;;;;4965610;28;20046;-68
2022/03/12 01:22:21;;;;;;;4.15;2.92;;;7.00;53.30;;;;;;4956205;28;20098;-68
2022/03/12 01:24:48;;;;;;;4.55;2.75;;;7.00;53.00;;;;;;4978895;28;20436;-68
2022/03/12 01:27:15;;;;;;;3.42;2.17;;;7.10;53.10;;;;;;4964039;28;20461;-68
2022/03/12 01:29:42;;;;;;;5.32;3.10;;;7.10;53.10;;;;;;4960756;28;20447;-68
2022/03/12 01:32:09;;;;;;;7.28;3.45;;;7.10;53.00;;;;;;4961453;28;20448;-68
2022/03/12 01:35:05;;;;;;;6.75;3.20;;;7.10;52.80;;;;;;4947052;28;20086;-68
2022/03/12 01:37:32;;;;;;;4.03;2.58;;;7.10;53.70;;;;;;4952969;28;20054;-68
2022/03/12 01:39:57;;;;;;;4.95;2.67;;;7.10;53.00;;;;;;4963116;28;20158;-68
2022/03/12 01:42:27;;;;;;;3.50;2.55;;;7.10;53.10;;;;;;4965953;28;20118;-68
2022/03/12 01:44:57;;;;;;;5.38;3.17;;;7.10;53.00;;;;;;4960151;28;20042;-68
2022/03/12 01:47:23;;;;;;;5.07;3.00;;;7.10;52.90;;;;;;4960894;28;20043;-68
2022/03/12 01:49:53;;;;;;;4.55;3.20;;;7.10;52.90;;;;;;4982518;28;20045;-68
2022/03/12 01:52:20;;;;;;;2.90;2.40;;;7.10;53.00;;;;;;4979123;28;20043;-68
2022/03/12 01:54:46;;;;;;;4.50;3.08;;;7.10;53.20;;;;;;4967554;28;20046;-68
2022/03/12 01:57:12;;;;;;;3.53;2.00;;;7.10;52.90;;;;;;4948427;28;20227;-68
2022/03/12 01:59:38;;;;;;;4.45;2.72;;;7.10;53.00;;;;;;4961149;28;20081;-68
2022/03/12 02:02:08;;;;;;;3.53;2.85;;;7.10;53.10;;;;;;4959403;28;20054;-68
2022/03/12 02:04:36;;;;;;;3.28;2.58;;;7.10;53.30;;;;;;4963760;28;20054;-68
2022/03/12 02:07:02;;;;;;;5.15;3.22;;;7.10;52.90;;;;;;4962178;28;20086;-68
2022/03/12 02:09:28;;;;;;;3.78;2.10;;;7.10;52.80;;;;;;4960013;28;20171;-68
2022/03/12 02:11:54;;;;;;;3.22;2.50;;;7.20;53.00;;;;;;4950791;28;20414;-68
2022/03/12 02:14:25;;;;;;;3.83;2.97;;;7.10;52.80;;;;;;4962048;28;20039;-68
2022/03/12 02:16:57;;;;;;;5.80;2.85;;;7.20;52.90;;;;;;4933493;28;20109;-68
2022/03/12 02:19:27;;;;;;;5.38;2.50;;;7.10;52.70;;;;;;4965376;28;20448;-68
2022/03/12 02:21:57;;;;;;;8.48;3.35;;;7.10;53.50;;;;;;4955590;28;20454;-68
2022/03/12 02:24:26;;;;;;;3.40;2.10;;;7.10;53.30;;;;;;4964255;28;20176;-68
2022/03/12 02:26:54;;;;;;;4.15;2.25;;;7.10;53.60;;;;;;4978869;28;20055;-68
2022/03/12 02:29:21;;;;;;;7.53;3.45;;;7.10;53.20;;;;;;4959169;28;20090;-68
2022/03/12 02:31:56;;;;;;;2.47;1.83;;;7.00;53.40;;;;;;4973223;28;20392;-68
2022/03/12 02:34:30;;;;;;;2.17;1.73;;;7.00;53.60;;;;;;4964771;28;20066;-69
2022/03/12 02:36:57;;;;;;;4.15;2.75;;;7.00;53.70;;;;;;4965363;28;20126;-68
2022/03/12 02:39:25;;;;;;;3.40;2.75;;;7.00;53.90;;;;;;4955015;28;20061;-68
2022/03/12 02:41:51;;;;;;;4.32;2.80;;;6.90;53.80;;;;;;4954637;28;20120;-68
2022/03/12 02:44:26;;;;;;;6.60;3.60;;;6.90;54.10;;;;;;4982526;28;20042;-68
2022/03/12 02:47:21;;;;;;;12.32;3.25;;;6.90;53.80;;;;;;4967408;28;20561;-68
2022/03/12 02:49:55;;;;;;;3.63;2.17;;;6.90;54.00;;;;;;4964443;28;20046;-68
2022/03/12 02:52:22;;;;;;;4.78;1.92;;;7.00;54.10;;;;;;4967683;28;20030;-68
2022/03/12 02:54:50;;;;;;;4.93;2.63;;;7.00;53.80;;;;;;4947555;28;20143;-68
2022/03/12 02:57:16;;;;;;;5.60;3.13;;;7.10;54.00;;;;;;4961145;28;20058;-68
2022/03/12 02:59:43;;;;;;;4.13;2.50;;;7.10;54.00;;;;;;4970044;28;20129;-68
2022/03/12 03:02:11;;;;;;;3.80;2.65;;;7.00;53.90;;;;;;4980679;28;20055;-68
2022/03/12 03:04:37;;;;;;;5.10;2.45;;;7.00;53.80;;;;;;4971552;28;20105;-68
2022/03/12 03:07:05;;;;;;;5.75;3.80;;;7.00;53.90;;;;;;4957318;28;20080;-68
2022/03/12 03:09:31;;;;;;;5.90;3.38;;;7.10;54.10;;;;;;4978356;28;20041;-68
2022/03/12 03:11:57;;;;;;;4.47;2.08;;;7.00;54.20;;;;;;4980402;28;20039;-68
2022/03/12 03:14:27;;;;;;;2.95;1.85;;;7.00;54.10;;;;;;4972628;28;20063;-68
2022/03/12 03:16:59;;;;;;;3.17;2.85;;;7.00;54.50;;;;;;4964038;28;20038;-68
2022/03/12 03:19:26;;;;;;;2.00;1.75;;;7.00;54.30;;;;;;4967123;28;20518;-68
2022/03/12 03:21:53;;;;;;;4.13;3.03;;;7.00;54.20;;;;;;4988414;28;20046;-68
2022/03/12 03:24:20;;;;;;;4.35;3.30;;;7.00;54.20;;;;;;4969391;28;20089;-68
2022/03/12 03:26:54;;;;;;;1.83;1.73;;;7.00;54.40;;;;;;4968914;28;20080;-68
2022/03/12 03:29:21;;;;;;;3.10;2.75;;;7.00;54.60;;;;;;4955544;28;20092;-68
2022/03/12 03:31:48;;;;;;;4.05;3.67;;;7.00;54.50;;;;;;4954792;28;20034;-68
2022/03/12 03:34:15;;;;;;;2.88;2.22;;;7.00;54.80;;;;;;4983630;28;20491;-68
2022/03/12 03:36:40;;;;;;;5.43;2.45;;;7.00;55.00;;;;;;4971235;28;20149;-68
2022/03/12 03:39:07;;;;;;;3.65;2.33;;;7.00;54.30;;;;;;4960612;28;20133;-68
2022/03/12 03:41:35;;;;;;;3.28;2.22;;;7.00;54.30;;;;;;4988368;28;20062;-69
2022/03/12 03:44:01;;;;;;;5.55;3.58;;;7.00;54.50;;;;;;4960840;28;20046;-69
2022/03/12 03:46:27;;;;;;;5.55;2.95;;;7.00;54.20;;;;;;4964403;28;20169;-69
2022/03/12 03:48:54;;;;;;;2.85;2.58;;;7.00;54.10;;;;;;4971954;28;20086;-68
2022/03/12 03:51:20;;;;;;;3.78;2.95;;;7.00;54.30;;;;;;4963624;28;20038;-68
2022/03/12 03:53:47;;;;;;;1.42;1.30;;;7.00;54.50;;;;;;4953593;28;20039;-68
2022/03/12 03:56:13;;;;;;;2.75;2.15;;;7.00;54.70;;;;;;4971036;28;20054;-68
2022/03/12 03:58:38;;;;;;;2.45;1.60;;;7.00;54.30;;;;;;4971197;28;20491;-68
2022/03/12 04:01:10;;;;;;;2.55;1.98;;;6.90;54.50;;;;;;4975581;28;20049;-68
2022/03/12 04:03:37;;;;;;;3.53;1.92;;;6.90;54.60;;;;;;4983424;28;20068;-68
2022/03/12 04:06:04;;;;;;;3.22;1.85;;;6.80;54.80;;;;;;4968553;28;20042;-68
2022/03/12 04:08:31;;;;;;;2.45;1.83;;;6.70;55.00;;;;;;4985342;28;20214;-68
2022/03/12 04:10:57;;;;;;;3.00;2.50;;;6.70;55.40;;;;;;4978746;28;20046;-68
2022/03/12 04:13:23;;;;;;;2.47;2.28;;;6.60;55.50;;;;;;4984662;28;20097;-68
2022/03/12 04:15:51;;;;;;;2.53;2.03;;;6.50;56.50;;;;;;4962029;28;20142;-69
2022/03/12 04:18:21;;;;;;;2.92;2.33;;;6.50;55.80;;;;;;4958889;28;20130;-69
2022/03/12 04:20:47;;;;;;;3.95;2.33;;;6.40;56.10;;;;;;4970382;28;20458;-69
2022/03/12 04:23:15;;;;;;;2.47;1.95;;;6.40;56.30;;;;;;4968655;28;20046;-69
2022/03/12 04:25:41;;;;;;;3.30;1.95;;;6.40;56.40;;;;;;4970674;28;20511;-69
2022/03/12 04:28:09;;;;;;;7.10;2.65;;;6.30;56.30;;;;;;4965445;28;20121;-69
2022/03/12 04:30:35;;;;;;;5.60;2.35;;;6.40;56.00;;;;;;4983695;28;20051;-68
2022/03/12 04:33:00;;;;;;;7.80;2.70;;;6.50;55.70;;;;;;4960634;28;20048;-68
2022/03/12 04:35:26;;;;;;;3.42;1.58;;;6.60;55.80;;;;;;4963020;28;20042;-69
2022/03/12 04:37:55;;;;;;;2.17;1.38;;;6.50;56.40;;;;;;4947973;28;20031;-68
2022/03/12 04:40:26;;;;;;;5.38;2.28;;;6.60;55.90;;;;;;4967665;28;20066;-68
2022/03/12 04:42:53;;;;;;;3.20;2.33;;;6.60;55.50;;;;;;4983246;28;20042;-68
2022/03/12 04:45:23;;;;;;;4.18;2.45;;;6.70;55.20;;;;;;4954902;28;20042;-68
2022/03/12 04:47:50;;;;;;;5.85;2.58;;;6.70;55.00;;;;;;4955882;28;20403;-68
2022/03/12 04:50:18;;;;;;;2.55;1.88;;;6.80;54.80;;;;;;4965202;28;20081;-68
2022/03/12 04:52:49;;;;;;;4.75;2.90;;;6.80;54.50;;;;;;4987171;28;20093;-68
2022/03/12 04:55:20;;;;;;;5.18;2.47;;;6.80;54.50;;;;;;4971521;28;20085;-68
2022/03/12 04:57:46;;;;;;;2.22;1.98;;;6.80;54.50;;;;;;4969654;28;20422;-68
2022/03/12 05:00:22;;;;;;;5.32;1.70;;;6.90;54.90;;;;;;4966005;28;20081;-68
2022/03/12 05:02:52;;;;;;;2.13;1.83;;;6.90;54.70;;;;;;4970855;28;20046;-68
2022/03/12 05:05:18;;;;;;;1.63;1.50;;;6.80;54.90;;;;;;4967517;28;20467;-68
2022/03/12 05:07:44;;;;;;;5.78;3.03;;;6.80;55.10;;;;;;4947017;28;20065;-69
2022/03/12 05:10:12;;;;;;;6.72;2.75;;;6.90;54.70;;;;;;4963358;28;20157;-69
2022/03/12 05:12:43;;;;;;;3.97;2.67;;;6.90;54.90;;;;;;4983210;28;20299;-69
2022/03/12 05:15:14;;;;;;;6.55;3.90;;;6.90;54.40;;;;;;4969386;28;20043;-68
2022/03/12 05:17:47;;;;;;;2.80;2.25;;;6.90;54.90;;;;;;4940903;28;20061;-68
2022/03/12 05:20:18;;;;;;;8.52;3.70;;;6.90;55.20;;;;;;4969592;28;20415;-68
2022/03/12 05:22:44;;;;;;;5.78;3.75;;;6.80;55.40;;;;;;4985389;28;20041;-68
2022/03/12 05:25:11;;;;;;;5.47;2.72;;;6.80;55.60;;;;;;4957266;28;20050;-68
2022/03/12 05:27:36;;;;;;;2.22;2.03;;;6.80;55.80;;;;;;4970006;28;20053;-68
2022/03/12 05:30:04;;;;;;;3.47;2.15;;;6.80;55.70;;;;;;4957888;28;20034;-68
2022/03/12 05:32:30;;;;;;;4.13;3.08;;;6.70;55.80;;;;;;4973892;28;20046;-68
2022/03/12 05:34:56;;;;;;;6.78;3.33;;;6.80;55.70;;;;;;4974320;28;20481;-68
2022/03/12 05:37:22;;;;;;;5.95;2.80;;;6.80;55.30;;;;;;4985978;28;20508;-69
2022/03/12 05:39:51;;;;;;;6.85;2.35;;;6.80;56.00;;;;;;4967793;28;20126;-68
2022/03/12 05:42:20;;;;;;;4.22;2.90;;;6.80;55.70;;;;;;4961406;28;20105;-68
2022/03/12 05:44:45;;;;;;;5.65;2.58;;;6.80;56.20;;;;;;4971780;28;20049;-68
2022/03/12 05:47:11;;;;;;;2.55;2.35;;;6.80;57.10;;;;;;4958841;28;20039;-68
2022/03/12 05:49:37;;;;;;;3.45;2.95;;;6.70;57.60;;;;;;4962161;28;20566;-68
2022/03/12 05:52:03;;;;;;;4.13;2.97;;;6.70;57.90;;;;;;4981360;28;20046;-68
2022/03/12 05:54:29;;;;;;;4.03;2.17;;;6.60;58.50;;;;;;4986233;28;20457;-68
2022/03/12 05:56:55;;;;;;;9.25;2.83;;;6.60;58.10;;;;;;4961306;28;21553;-68
2022/03/12 05:59:20;;;;;;;5.38;3.00;;;6.70;58.60;;;;;;4957133;28;20296;-68
2022/03/12 06:01:46;;;;;;;5.40;3.30;;;6.70;58.70;;;;;;4967061;28;20487;-68
2022/03/12 06:04:22;;;;;;;10.43;3.28;;;6.70;58.70;;;;;;4946064;28;20046;-68
2022/03/12 06:06:48;;;;;;;3.67;2.33;;;6.70;58.90;;;;;;4968697;28;20042;-68
2022/03/12 06:09:13;;;;;;;2.40;2.20;;;6.70;59.30;;;;;;4985227;28;20057;-69
2022/03/12 06:11:42;;;;;;;6.30;3.15;;;6.70;59.20;;;;;;4963845;28;20487;-68
2022/03/12 06:14:15;;;;;;;7.85;3.15;;;6.60;59.20;;;;;;4957325;28;20095;-69
2022/03/12 06:16:43;;;;;;;6.65;3.42;;;6.60;58.40;;;;;;4955761;28;20055;-69
2022/03/12 06:19:09;;;;;;;8.23;3.88;;;6.70;58.00;;;;;;4967685;28;20152;-68
2022/03/12 06:21:35;;;;;;;4.15;2.80;;;6.70;57.60;;;;;;4959241;28;20157;-68
2022/03/12 06:24:02;;;;;;;6.18;3.67;;;6.70;57.50;;;;;;4983913;28;20050;-69
2022/03/12 06:26:56;;;;;;;8.48;2.05;;;6.70;57.60;;;;;;4966789;28;20093;-68
2022/03/12 06:29:22;;;;;;;6.00;3.35;;;6.70;57.70;;;;;;4963293;28;20053;-68
2022/03/12 06:31:48;;;;;;;4.70;2.17;;;6.70;57.80;;;;;;4977363;28;20430;-68
2022/03/12 06:34:13;;;;;;;7.70;3.40;;;6.60;58.20;;;;;;4962303;28;20074;-68
2022/03/12 06:36:40;;;;;;;5.32;2.53;;;6.60;58.70;;;;;;4952715;28;20454;-68
2022/03/12 06:39:07;;;;;;;2.60;2.35;;;6.60;58.70;;;;;;4964790;28;20470;-68
2022/03/12 06:41:35;;;;;;;4.28;3.03;;;6.50;59.40;;;;;;4969911;28;20542;-68
2022/03/12 06:44:02;;;;;;;9.02;1.70;;;6.50;59.20;;;;;;4959220;28;20038;-68
2022/03/12 06:46:28;;;;;;;2.78;2.28;;;6.50;59.40;;;;;;4957356;28;20048;-68
2022/03/12 06:48:53;;;;;;;2.15;1.35;;;6.50;59.70;;;;;;4955238;28;20042;-69
2022/03/12 06:51:20;;;;;;;4.03;3.25;;;6.50;59.80;;;;;;4982004;28;20038;-69
2022/03/12 06:53:45;;;;;;;2.67;2.05;;;6.40;60.20;;;;;;4965185;28;20066;-69
2022/03/12 06:56:12;;;;;;;1.50;1.40;;;6.40;60.00;;;;;;4965968;28;20070;-69
2022/03/12 06:58:38;;;;;;;2.47;2.00;;;6.40;60.20;;;;;;4955748;28;20432;-69
2022/03/12 07:01:04;;;;;;;7.32;3.33;;;6.40;60.40;;;;;;4956310;28;20114;-69
2022/03/12 07:03:29;;;;;;;8.25;4.72;;;6.40;59.80;;;;;;4964947;28;20093;-69
2022/03/12 07:05:55;;;;;;;5.53;3.10;;;6.50;60.10;;;;;;4984807;28;20046;-68
2022/03/12 07:08:22;;;;;;;3.95;2.47;;;6.50;59.60;;;;;;4968016;28;20133;-68
2022/03/12 07:10:49;;;;;;;3.05;1.90;;;6.60;59.80;;;;;;4952508;28;20129;-69
2022/03/12 07:13:15;;;;;;;2.25;1.90;;;6.70;60.40;;;;;;4956281;28;20045;-68
2022/03/12 07:15:40;;;;;;;3.58;2.75;;;6.70;60.00;;;;;;4962211;28;20064;-69
2022/03/12 07:18:06;;;;;;;5.18;3.65;;;6.80;60.00;;;;;;4983087;28;20042;-68
2022/03/12 07:20:32;;;;;;;4.60;3.42;;;6.80;60.00;;;;;;4981494;28;20302;-69
2022/03/12 07:22:57;;;;;;;6.72;3.22;;;6.80;59.40;;;;;;4950513;28;20054;-68
2022/03/12 07:25:25;;;;;;;6.38;4.05;;;6.90;59.30;;;;;;4971620;28;20050;-68
2022/03/12 07:27:52;;;;;;;10.50;4.28;;;6.90;59.40;;;;;;4981404;28;20438;-68
2022/03/12 07:30:18;;;;;;;9.57;3.83;;;7.10;59.20;;;;;;4956962;28;20049;-68
2022/03/12 07:32:45;;;;;;;6.15;3.80;;;7.20;58.70;;;;;;4981420;28;20045;-68
2022/03/12 07:35:12;;;;;;;3.38;2.40;;;7.20;58.30;;;;;;4980899;28;20543;-68
2022/03/12 07:37:38;;;;;;;3.38;2.17;;;7.30;58.90;;;;;;4954167;28;20240;-68
2022/03/12 07:40:05;;;;;;;8.40;4.20;;;7.60;58.40;;;;;;4961170;28;20563;-68
2022/03/12 07:42:31;;;;;;;8.68;4.65;;;7.80;58.50;;;;;;4951191;28;20061;-68
2022/03/12 07:44:57;;;;;;;7.53;2.92;;;7.80;58.00;;;;;;4983585;28;20141;-68
2022/03/12 07:47:22;;;;;;;5.63;3.00;;;7.80;58.00;;;;;;4966105;28;20053;-68
2022/03/12 07:49:48;;;;;;;7.93;4.55;;;7.90;57.70;;;;;;4959361;28;20254;-68
2022/03/12 07:52:14;;;;;;;7.53;3.95;;;8.00;57.50;;;;;;4955924;28;20039;-68
2022/03/12 07:54:39;;;;;;;5.85;3.40;;;8.10;58.10;;;;;;4944707;28;20042;-68
2022/03/12 07:57:05;;;;;;;6.50;4.05;;;8.20;57.70;;;;;;4959894;28;20495;-69
2022/03/12 07:59:31;;;;;;;8.95;4.05;;;8.30;57.10;;;;;;4962904;28;20422;-68
2022/03/12 08:01:58;;;;;;;7.72;3.72;;;8.30;57.20;;;;;;4933594;28;20407;-68
2022/03/12 08:04:25;;;;;;;5.47;2.90;;;8.40;57.90;;;;;;4971478;28;20751;-68
2022/03/12 08:06:51;;;;;;;8.35;4.55;;;8.40;58.00;;;;;;4973385;28;20049;-68
2022/03/12 08:09:16;;;;;;;6.95;3.67;;;8.40;58.10;;;;;;4965028;28;20046;-68
2022/03/12 08:11:42;;;;;;;8.05;4.30;;;8.50;58.70;;;;;;4962830;28;20030;-68
2022/03/12 08:14:19;;;;;;;5.47;3.65;;;8.60;59.00;;;;;;4972781;28;20049;-68
2022/03/12 08:16:45;;;;;;;7.55;5.10;;;8.80;58.60;;;;;;4945001;28;20484;-68
2022/03/12 08:19:12;;;;;;;5.82;3.03;;;8.90;58.00;;;;;;4979503;28;20038;-68
2022/03/12 08:21:38;;;;;;;6.03;3.30;;;8.90;58.20;;;;;;4968211;28;20042;-69
2022/03/12 08:24:04;;;;;;;7.80;4.18;;;8.90;58.60;;;;;;4953707;28;20041;-70
2022/03/12 08:26:30;;;;;;;6.70;4.07;;;9.00;59.20;;;;;;4957298;28;20050;-70
2022/03/12 08:28:56;;;;;;;8.65;4.35;;;9.00;58.60;;;;;;4970157;28;20046;-70
2022/03/12 08:31:22;;;;;;;6.15;4.38;;;9.00;59.20;;;;;;4972791;28;21371;-70
2022/03/12 08:33:48;;;;;;;11.25;5.70;;;9.10;59.80;;;;;;4959073;28;20145;-69
2022/03/12 08:36:14;;;;;;;6.55;4.63;;;9.20;59.20;;;;;;4957063;28;20045;-69
2022/03/12 08:38:40;;;;;;;10.43;4.93;;;9.30;58.80;;;;;;4974422;28;20057;-69
2022/03/12 08:41:08;;;;;;;9.48;3.83;;;9.50;59.40;;;;;;4962255;28;20058;-69
2022/03/12 08:43:37;;;;;;;9.80;4.50;;;9.80;58.70;;;;;;4966981;28;20485;-69
2022/03/12 08:46:05;;;;;;;5.30;3.17;;;9.90;58.30;;;;;;4946149;28;20377;-69
2022/03/12 08:48:32;;;;;;;5.38;3.67;;;9.90;57.80;;;;;;4948162;28;20034;-69
2022/03/12 08:50:58;;;;;;;7.35;4.35;;;9.90;59.20;;;;;;4963503;28;20123;-69
2022/03/12 08:53:23;;;;;;;4.63;3.40;;;9.90;58.70;;;;;;4959399;28;20047;-69
2022/03/12 08:55:50;;;;;;;6.38;4.10;;;10.00;60.20;;;;;;4982168;28;20031;-69
2022/03/12 08:58:16;;;;;;;6.60;3.90;;;10.10;59.70;;;;;;4957711;28;20122;-69
2022/03/12 09:00:43;;;;;;;6.53;3.67;;;10.20;59.80;;;;;;4956130;28;20038;-70
2022/03/12 09:03:10;;;;;;;10.45;4.20;;;10.50;59.40;;;;;;4950300;28;20050;-70
2022/03/12 09:05:36;;;;;;;9.63;4.03;;;10.80;59.90;;;;;;4959078;28;20034;-70
2022/03/12 09:08:02;;;;;;;9.98;5.50;;;11.20;59.40;;;;;;4966828;28;20073;-67
2022/03/12 09:10:28;;;;;;;6.68;4.22;;;11.40;57.50;;;;;;4963189;28;20038;-69
2022/03/12 09:12:54;;;;;;;6.15;3.75;;;11.50;57.80;;;;;;4963735;28;20088;-68
2022/03/12 09:15:24;;;;;;;5.57;3.40;;;11.70;58.10;;;;;;4976621;28;20074;-68
2022/03/12 09:17:51;;;;;;;7.95;4.75;;;12.00;57.90;;;;;;4957535;28;20103;-68
2022/03/12 09:20:17;;;;;;;8.68;4.28;;;12.30;57.80;;;;;;4960230;28;21314;-68
2022/03/12 09:22:42;;;;;;;13.60;4.55;;;12.50;56.50;;;;;;4959542;28;20422;-68
2022/03/12 09:25:12;;;;;;;6.45;3.88;;;12.60;56.60;;;;;;4945843;28;20124;-68
2022/03/12 09:27:38;;;;;;;8.35;5.10;;;12.60;58.60;;;;;;4957994;28;20110;-68
2022/03/12 09:30:05;;;;;;;3.90;2.85;;;12.80;57.90;;;;;;4961633;28;20058;-68
2022/03/12 09:32:30;;;;;;;7.18;4.15;;;12.60;57.30;;;;;;4966303;28;20034;-68
2022/03/12 09:34:56;;;;;;;8.40;4.07;;;12.60;57.60;;;;;;4960487;28;20128;-68
2022/03/12 09:37:21;;;;;;;7.78;4.32;;;12.60;58.50;;;;;;4945086;28;20411;-68
2022/03/12 09:39:47;;;;;;;8.65;4.88;;;12.50;58.90;;;;;;4980690;28;20042;-68
2022/03/12 09:42:13;;;;;;;9.52;5.63;;;12.60;58.80;;;;;;4975201;28;20058;-68
2022/03/12 09:44:38;;;;;;;9.85;4.30;;;12.50;58.90;;;;;;4982250;28;20042;-68
2022/03/12 09:47:04;;;;;;;8.00;4.30;;;12.50;60.40;;;;;;4980726;28;20830;-68
2022/03/12 09:49:33;;;;;;;5.15;3.05;;;12.70;60.90;;;;;;4965167;28;20076;-68
2022/03/12 09:51:59;;;;;;;4.25;3.10;;;12.80;60.40;;;;;;4963801;28;20053;-68
2022/03/12 09:54:28;;;;;;;10.35;5.47;;;12.80;60.90;;;;;;4962902;28;20038;-68
2022/03/12 09:56:54;;;;;;;4.30;3.08;;;12.80;61.20;;;;;;4958860;28;20046;-68
2022/03/12 09:59:20;;;;;;;6.50;4.05;;;12.80;62.00;;;;;;4962075;28;20097;-68
2022/03/12 10:01:46;;;;;;;6.65;3.55;;;12.90;63.40;;;;;;4962001;28;20042;-68
2022/03/12 10:04:11;;;;;;;6.78;4.03;;;13.10;63.80;;;;;;4960048;28;20050;-68
2022/03/12 10:06:37;;;;;;;4.07;3.13;;;13.10;64.30;;;;;;4961992;28;20046;-68
2022/03/12 10:09:04;;;;;;;8.75;4.18;;;13.20;65.30;;;;;;4943792;28;20038;-68
2022/03/12 10:11:30;;;;;;;10.70;4.15;;;13.30;65.50;;;;;;4967960;28;20402;-68
2022/03/12 10:13:55;;;;;;;4.35;3.13;;;13.40;65.40;;;;;;4964640;28;20449;-68
2022/03/12 10:16:22;;;;;;;8.15;4.72;;;13.60;65.80;;;;;;4960173;28;20101;-68
2022/03/12 10:18:47;;;;;;;5.43;4.28;;;13.60;65.30;;;;;;4961840;28;20046;-68
2022/03/12 10:21:14;;;;;;;7.78;3.88;;;13.60;65.70;;;;;;4962334;28;20043;-68
2022/03/12 10:23:40;;;;;;;2.88;1.85;;;13.60;66.50;;;;;;4983170;28;20046;-68
2022/03/12 10:26:05;;;;;;;5.95;3.88;;;13.70;68.70;;;;;;4960250;28;20096;-68
2022/03/12 10:28:36;;;;;;;2.78;2.28;;;13.80;67.60;;;;;;4967325;28;20050;-68
2022/03/12 10:31:05;;;;;;;11.82;4.97;;;13.90;69.10;;;;;;4973603;28;20077;-68
2022/03/12 10:33:31;;;;;;;7.00;4.10;;;14.10;69.40;;;;;;4963488;28;20581;-68
2022/03/12 10:36:10;;;;;;;5.80;3.40;;;14.10;69.70;;;;;;4966697;28;20058;-68
2022/03/12 10:38:40;;;;;;;3.67;2.05;;;14.10;70.70;;;;;;4969267;28;20542;-68
2022/03/12 10:41:07;;;;;;;10.40;3.75;;;14.10;72.90;;;;;;4960842;28;20074;-68
2022/03/12 10:43:46;;;;;;;6.05;4.30;;;14.10;72.50;;;;;;4969065;28;20042;-69
2022/03/12 10:46:22;;;;;;;13.77;6.97;;;14.20;73.30;;;;;;4981339;28;20041;-68
2022/03/12 10:48:58;;;;;;;6.18;3.53;;;14.10;73.20;;;;;;4949932;28;20039;-68
2022/03/12 10:51:33;;;;;;;6.20;3.08;;;14.00;74.90;;;;;;4967424;28;20092;-68
2022/03/12 10:54:09;;;;;;;5.63;3.40;;;14.00;74.80;;;;;;4963140;28;20038;-68
2022/03/12 10:56:52;;;;;;;3.97;2.35;;;14.10;76.90;;;;;;4966350;28;20629;-68
2022/03/12 10:59:23;;;;;;;13.60;3.55;;;14.20;75.00;;;;;;4972705;28;20156;-68
2022/03/12 11:01:50;;;;;;;6.93;3.38;;;14.30;76.70;;;;;;4985367;28;20085;-68
2022/03/12 11:04:18;;;;;;;6.45;2.78;;;14.30;76.40;;;;;;4985499;28;20548;-68
2022/03/12 11:06:45;;;;;;;3.53;2.40;;;14.40;75.00;;;;;;4951504;28;20053;-68
2022/03/12 11:09:18;;;;;;;11.95;3.83;;;14.40;75.20;;;;;;4963879;28;20594;-68
2022/03/12 11:11:45;;;;;;;4.57;3.10;;;14.50;77.20;;;;;;4947331;28;20042;-68
2022/03/12 11:14:18;;;;;;;3.95;2.63;;;14.50;77.30;;;;;;4952039;28;20053;-68
2022/03/12 11:16:50;;;;;;;5.50;3.20;;;14.60;76.60;;;;;;4957595;28;20042;-68
2022/03/12 11:19:17;;;;;;;4.20;3.08;;;14.70;77.50;;;;;;4967095;28;20100;-68
2022/03/12 11:21:51;;;;;;;3.33;2.38;;;14.70;77.20;;;;;;4969325;28;20136;-68
2022/03/12 11:24:25;;;;;;;11.07;3.72;;;14.70;76.30;;;;;;4968070;28;20403;-68
2022/03/12 11:26:55;;;;;;;4.63;2.95;;;14.80;76.70;;;;;;4969366;28;20042;-68
2022/03/12 11:29:23;;;;;;;4.00;2.65;;;14.80;77.10;;;;;;4966039;28;20038;-68
2022/03/12 11:31:51;;;;;;;5.80;3.28;;;14.90;78.80;;;;;;4968890;28;20046;-68
2022/03/12 11:34:32;;;;;;;3.45;2.42;;;14.90;75.10;;;;;;4963904;28;20515;-68
2022/03/12 11:36:59;;;;;;;4.10;3.15;;;14.90;76.00;;;;;;4963788;28;20518;-68
2022/03/12 11:39:34;;;;;;;6.43;3.30;;;14.80;76.00;;;;;;4971307;28;20096;-68
2022/03/12 11:42:22;;;;;;;4.65;3.17;;;14.80;76.90;;;;;;4947266;28;20077;-68
2022/03/12 11:44:54;;;;;;;12.88;3.97;;;14.80;75.80;;;;;;4950465;28;20065;-68
2022/03/12 11:47:22;;;;;;;4.20;3.05;;;14.80;76.00;;;;;;4967672;28;20082;-68
2022/03/12 11:49:49;;;;;;;3.67;2.78;;;14.90;76.90;;;;;;4963853;28;20050;-68
2022/03/12 11:52:16;;;;;;;3.47;2.50;;;15.00;74.80;;;;;;4988424;28;20058;-68
2022/03/12 11:54:43;;;;;;;7.18;3.45;;;15.10;75.20;;;;;;4972134;28;20046;-68
2022/03/12 11:57:23;;;;;;;6.78;3.47;;;15.30;74.60;;;;;;4972150;28;20477;-68
2022/03/12 11:59:50;;;;;;;1.95;1.48;;;15.50;74.40;;;;;;4979709;28;20053;-68
2022/03/12 12:02:33;;;;;;;4.82;2.53;;;15.70;75.60;;;;;;4965056;28;20093;-68
2022/03/12 12:05:03;;;;;;;5.50;2.60;;;15.80;70.70;;;;;;4966973;28;20042;-68
2022/03/12 12:07:31;;;;;;;2.97;2.25;;;15.80;68.90;;;;;;4948807;28;20057;-68
2022/03/12 12:09:57;;;;;;;4.97;2.65;;;15.70;68.00;;;;;;4968453;28;20391;-68
2022/03/12 12:12:24;;;;;;;2.03;1.52;;;15.50;69.00;;;;;;4959530;28;20920;-68
2022/03/12 12:14:51;;;;;;;2.05;1.52;;;15.30;70.30;;;;;;4963426;28;20652;-68
2022/03/12 12:17:17;;;;;;;5.30;3.13;;;15.20;71.10;;;;;;4984088;28;20101;-68
2022/03/12 12:19:43;;;;;;;3.67;2.17;;;15.20;72.70;;;;;;4965061;28;20566;-68
2022/03/12 12:22:08;;;;;;;2.88;1.98;;;15.20;72.60;;;;;;4962522;28;20515;-68
2022/03/12 12:24:39;;;;;;;4.32;3.00;;;15.20;74.00;;;;;;4949844;28;20061;-68
2022/03/12 12:27:07;;;;;;;3.13;2.38;;;15.10;73.00;;;;;;4965263;28;20387;-68
2022/03/12 12:29:49;;;;;;;1.73;1.42;;;15.10;71.00;;;;;;4950907;28;20074;-68
2022/03/12 12:32:18;;;;;;;2.40;1.77;;;15.00;71.50;;;;;;4961918;28;20038;-68
2022/03/12 12:35:09;;;;;;;2.85;2.00;;;15.00;72.20;;;;;;4968721;28;20478;-68
2022/03/12 12:37:50;;;;;;;1.88;1.35;;;15.10;72.30;;;;;;4955365;28;20576;-68
2022/03/12 12:40:36;;;;;;;6.32;2.03;;;15.10;73.70;;;;;;4962652;28;20065;-68
2022/03/12 12:43:13;;;;;;;2.55;1.58;;;15.20;72.60;;;;;;4962633;28;20042;-68
2022/03/12 12:45:54;;;;;;;5.90;2.72;;;15.30;73.60;;;;;;4952945;28;20046;-68
2022/03/12 12:48:33;;;;;;;6.40;3.13;;;15.20;71.80;;;;;;4977036;28;20057;-68
2022/03/12 12:51:11;;;;;;;1.20;1.10;;;15.30;72.30;;;;;;4979063;28;20073;-68
2022/03/12 12:53:47;;;;;;;12.05;2.30;;;15.20;72.30;;;;;;4953384;28;20133;-68
2022/03/12 12:56:24;;;;;;;1.30;1.20;;;15.10;70.10;;;;;;4967942;28;20047;-68
2022/03/12 12:58:56;;;;;;;1.77;1.33;;;15.10;70.40;;;;;;4952894;28;20051;-68